createdAt,value
2022-11-26T00:14:00.350Z,87.1
2022-11-26T00:29:10.000Z,87.2
2022-11-26T00:44:19.953Z,87.3
2022-11-26T00:59:29.908Z,87.3
2022-11-26T01:14:41.014Z,87.3
2022-11-26T01:29:50.729Z,87.4
2022-11-26T01:45:00.180Z,87.4
2022-11-26T02:00:10.657Z,87.4
2022-11-26T02:15:20.200Z,87.4
2022-11-26T02:30:29.866Z,87.5
2022-11-26T02:45:40.353Z,87.5
2022-11-26T03:00:50.185Z,87.5
2022-11-26T03:16:00.395Z,87.5
2022-11-26T03:31:10.427Z,87.5
2022-11-26T03:46:20.178Z,87.6
2022-11-26T04:01:30.174Z,87.6
2022-11-26T04:16:40.028Z,87.6
2022-11-26T04:31:50.076Z,87.7
2022-11-26T04:46:59.489Z,87.7
2022-11-26T05:02:09.636Z,87.8
2022-11-26T05:17:18.877Z,87.9
2022-11-26T05:32:28.456Z,87.9
2022-11-26T05:47:37.482Z,88
2022-11-26T06:02:47.620Z,88
2022-11-26T06:17:56.961Z,88.1
2022-11-26T06:33:08.062Z,88.1
2022-11-26T06:48:17.492Z,88.3
2022-11-26T07:03:33.884Z,88.1
2022-11-26T07:18:43.479Z,88.1
2022-11-26T07:33:52.596Z,88.3
2022-11-26T07:49:02.367Z,88.4
2022-11-26T08:04:11.839Z,88.4
2022-11-26T08:19:25.343Z,87.6
2022-11-26T08:34:35.034Z,87.4
2022-11-26T08:49:44.884Z,87.3
2022-11-26T09:04:54.520Z,87.2
2022-11-26T09:20:04.482Z,87
2022-11-26T09:35:14.412Z,86.9
2022-11-26T09:50:24.122Z,86.5
2022-11-26T10:05:34.078Z,86.2
2022-11-26T10:20:43.518Z,85.9
2022-11-26T10:35:53.739Z,85.8
2022-11-26T10:51:03.761Z,85.8
2022-11-26T11:08:34.575Z,86
2022-11-26T11:24:09.830Z,87.5
2022-11-26T11:39:19.637Z,86.8
2022-11-26T11:54:29.230Z,86.1
2022-11-26T12:09:38.977Z,85.6
2022-11-26T12:24:48.865Z,85.1
2022-11-26T12:39:58.987Z,84.8
2022-11-26T12:55:11.044Z,85.5
2022-11-26T13:10:20.830Z,85.2
2022-11-26T13:25:30.378Z,85.4
2022-11-26T13:40:39.755Z,85.8
2022-11-26T13:55:49.185Z,86.1
2022-11-26T14:10:58.453Z,86.2
2022-11-26T14:26:11.066Z,86.3
2022-11-26T14:41:20.228Z,86.7
2022-11-26T14:56:29.748Z,87
2022-11-26T15:11:39.274Z,87.5
2022-11-26T15:26:48.370Z,87.9
2022-11-26T15:41:57.959Z,88.1
2022-11-26T15:57:09.428Z,88.2
2022-11-26T16:12:19.129Z,88.4
2022-11-26T16:27:29.620Z,88.5
2022-11-26T16:42:39.689Z,88.5
2022-11-26T16:57:49.085Z,88.5
2022-11-26T17:12:58.460Z,88.4
2022-11-26T17:28:08.027Z,88.2
2022-11-26T17:43:17.742Z,88.1
2022-11-26T17:58:27.119Z,87.9
2022-11-26T18:14:25.885Z,87.2
2022-11-26T18:29:41.120Z,88.5
2022-11-26T18:44:50.842Z,88.1
2022-11-26T19:00:00.259Z,88
2022-11-26T19:15:10.841Z,87.9
2022-11-26T19:30:20.094Z,87.8
2022-11-26T19:45:29.430Z,87.4
2022-11-26T20:00:38.934Z,87.7
2022-11-26T20:15:48.494Z,87.7
2022-11-26T20:30:58.141Z,87.7
2022-11-26T20:46:07.993Z,87.8
2022-11-26T21:01:17.623Z,87.9
2022-11-26T21:16:27.729Z,88
2022-11-26T21:31:37.148Z,88.1
2022-11-26T21:46:46.395Z,88.2
2022-11-26T22:01:56.448Z,88.1
2022-11-26T22:17:05.797Z,88.1
2022-11-26T22:32:15.506Z,88.2
2022-11-26T22:47:24.592Z,88.3
2022-11-26T23:02:34.660Z,88.1
2022-11-26T23:17:44.183Z,88.3
2022-11-26T23:32:53.722Z,88.7
2022-11-26T23:48:02.670Z,88.3
